createdAt,value
2022-10-17T00:00:02.755Z,98.09
2022-10-17T00:01:02.785Z,98.29
2022-10-17T00:02:01.685Z,98.09
2022-10-17T00:03:02.273Z,98.09
2022-10-17T00:04:02.113Z,97.89
2022-10-17T00:05:01.921Z,97.28
2022-10-17T00:06:01.837Z,97.13
2022-10-17T00:07:02.339Z,96.73
2022-10-17T00:08:02.868Z,96.93
2022-10-17T00:09:02.687Z,96.83
2022-10-17T00:10:02.477Z,96.63
2022-10-17T00:11:02.850Z,96.63
2022-10-17T00:12:01.856Z,96.73
2022-10-17T00:13:01.669Z,96.63
2022-10-17T00:14:02.109Z,96.43
2022-10-17T00:15:02.126Z,96.23
2022-10-17T00:16:02.161Z,96.13
2022-10-17T00:17:02.065Z,96.19
2022-10-17T00:18:02.578Z,95.98
2022-10-17T00:19:02.431Z,95.88
2022-10-17T00:20:02.267Z,95.68
2022-10-17T00:21:02.229Z,95.58
2022-10-17T00:22:02.137Z,95.68
2022-10-17T00:23:02.659Z,95.48
2022-10-17T00:24:02.262Z,95.58
2022-10-17T00:25:02.170Z,95.68
2022-10-17T00:26:02.072Z,95.78
2022-10-17T00:27:02.866Z,95.68
2022-10-17T00:28:02.767Z,95.48
2022-10-17T00:29:02.708Z,95.58
2022-10-17T00:30:02.975Z,95.48
2022-10-17T00:31:02.786Z,95.48
2022-10-17T00:32:02.689Z,95.58
2022-10-17T00:33:03.002Z,95.58
2022-10-17T00:34:02.990Z,95.38
2022-10-17T00:35:02.545Z,95.38
2022-10-17T00:36:02.797Z,95.38
2022-10-17T00:37:02.389Z,95.03
2022-10-17T00:38:02.404Z,94.93
2022-10-17T00:39:02.904Z,94.83
2022-10-17T00:40:02.616Z,94.63
2022-10-17T00:41:02.483Z,94.73
2022-10-17T00:42:02.160Z,94.73
2022-10-17T00:43:02.052Z,94.63
2022-10-17T00:44:02.259Z,94.53
2022-10-17T00:45:02.413Z,94.33
2022-10-17T00:46:02.286Z,94.13
2022-10-17T00:47:02.353Z,94.13
2022-10-17T00:48:02.125Z,93.93
2022-10-17T00:49:02.018Z,93.93
2022-10-17T00:51:02.170Z,93.93
2022-10-17T00:52:02.592Z,93.93
2022-10-17T00:53:02.484Z,93.82
2022-10-17T00:54:02.914Z,93.82
2022-10-17T00:55:02.773Z,93.93
2022-10-17T00:56:02.488Z,93.82
2022-10-17T00:57:02.127Z,93.73
2022-10-17T00:58:02.133Z,93.73
2022-10-17T00:59:02.222Z,93.82
2022-10-17T01:00:02.082Z,94.02
2022-10-17T01:01:02.158Z,93.82
2022-10-17T01:02:02.741Z,93.73
2022-10-17T01:03:02.619Z,93.93
2022-10-17T01:04:03.120Z,93.82
2022-10-17T01:05:02.691Z,93.62
2022-10-17T01:06:02.656Z,93.42
2022-10-17T01:07:02.332Z,93.62
2022-10-17T01:08:02.326Z,93.66
2022-10-17T01:09:02.567Z,93.66
2022-10-17T01:10:02.188Z,93.77
2022-10-17T01:11:02.185Z,93.87
2022-10-17T01:12:02.709Z,93.77
2022-10-17T01:13:02.671Z,93.66
2022-10-17T01:14:02.746Z,93.77
2022-10-17T01:15:02.560Z,93.97
2022-10-17T01:16:02.863Z,93.66
2022-10-17T01:17:02.492Z,93.57
2022-10-17T01:18:02.771Z,93.87
2022-10-17T01:19:02.271Z,93.46
2022-10-17T01:20:02.690Z,93.66
2022-10-17T01:21:02.318Z,93.16
2022-10-17T01:22:02.715Z,93.16
2022-10-17T01:23:02.618Z,93.07
2022-10-17T01:24:02.896Z,92.72
2022-10-17T01:25:02.878Z,92.61
2022-10-17T01:26:02.682Z,92.41
2022-10-17T01:27:03.412Z,92.56
2022-10-17T01:28:03.065Z,92.86
2022-10-17T01:29:03.040Z,92.86
2022-10-17T01:30:02.911Z,92.96
2022-10-17T01:31:02.929Z,92.96
2022-10-17T01:32:02.306Z,92.86
2022-10-17T01:33:02.203Z,92.46
2022-10-17T01:34:02.747Z,92.66
2022-10-17T01:35:02.309Z,92.76
2022-10-17T01:36:05.670Z,92.66
2022-10-17T01:37:02.829Z,92.46
2022-10-17T01:38:02.649Z,92.36
2022-10-17T01:39:03.078Z,92.46
2022-10-17T01:40:02.550Z,92.46
2022-10-17T01:41:03.063Z,92.56
2022-10-17T01:42:02.529Z,92.56
2022-10-17T01:43:02.743Z,92.46
2022-10-17T01:44:02.238Z,92.06
2022-10-17T01:45:02.489Z,92.26
2022-10-17T01:46:02.306Z,92.46
2022-10-17T01:47:02.902Z,92.66
2022-10-17T01:48:02.779Z,92.26
2022-10-17T01:49:02.679Z,92.36
2022-10-17T01:50:02.452Z,92.26
2022-10-17T01:51:03.054Z,92.36
2022-10-17T01:52:03.399Z,92.36
2022-10-17T01:53:02.960Z,92.36
2022-10-17T01:54:03.464Z,92.46
2022-10-17T01:55:03.093Z,92.26
2022-10-17T01:56:03.167Z,92.06
2022-10-17T01:57:02.834Z,92.26
2022-10-17T01:58:02.694Z,92.26
2022-10-17T01:59:02.595Z,92.46
2022-10-17T02:00:02.785Z,92.36
2022-10-17T02:01:02.768Z,92.46
2022-10-17T02:02:02.426Z,92.46
2022-10-17T02:03:02.056Z,92.36
2022-10-17T02:04:01.964Z,92.66
2022-10-17T02:06:02.455Z,92.56
2022-10-17T02:07:02.698Z,92.36
2022-10-17T02:08:02.501Z,92.66
2022-10-17T02:09:02.308Z,92.36
2022-10-17T02:10:02.129Z,92.36
2022-10-17T02:11:02.621Z,92.56
2022-10-17T02:12:02.673Z,92.46
2022-10-17T02:13:02.983Z,92.56
2022-10-17T02:14:03.193Z,92.71
2022-10-17T02:15:02.661Z,92.66
2022-10-17T02:16:02.604Z,92.86
2022-10-17T02:17:02.874Z,92.86
2022-10-17T02:18:02.469Z,92.76
2022-10-17T02:19:02.378Z,92.66
2022-10-17T02:20:02.268Z,92.66
2022-10-17T02:21:02.636Z,92.76
2022-10-17T02:22:03.141Z,92.76
2022-10-17T02:23:03.184Z,92.56
2022-10-17T02:24:02.687Z,92.66
2022-10-17T02:25:02.973Z,92.56
2022-10-17T02:26:02.828Z,92.56
2022-10-17T02:27:01.843Z,92.76
2022-10-17T02:28:01.928Z,92.76
2022-10-17T02:29:02.374Z,92.66
2022-10-17T02:30:01.911Z,92.91
2022-10-17T02:31:02.326Z,93.11
2022-10-17T02:32:01.943Z,93.11
2022-10-17T02:33:01.917Z,93.11
2022-10-17T02:34:01.956Z,93.21
2022-10-17T02:35:02.129Z,93.01
2022-10-17T02:36:02.049Z,93.11
2022-10-17T02:37:02.577Z,93.31
2022-10-17T02:38:02.542Z,93.21
2022-10-17T02:39:03.107Z,93.21
2022-10-17T02:40:02.894Z,93.21
2022-10-17T02:41:02.827Z,93.11
2022-10-17T02:42:03.176Z,93.21
2022-10-17T02:43:03.006Z,93.01
2022-10-17T02:44:02.884Z,93.01
2022-10-17T02:45:02.629Z,93.11
2022-10-17T02:46:03.201Z,93.01
2022-10-17T02:47:03.121Z,92.60
2022-10-17T02:48:02.677Z,92.50
2022-10-17T02:49:02.896Z,92.60
2022-10-17T02:50:03.078Z,92.91
2022-10-17T02:51:02.688Z,92.71
2022-10-17T02:52:02.327Z,92.71
2022-10-17T02:53:02.653Z,92.36
2022-10-17T02:54:02.482Z,92.60
2022-10-17T02:55:02.383Z,92.30
2022-10-17T02:56:02.896Z,92.60
2022-10-17T02:57:02.373Z,92.80
2022-10-17T02:58:02.959Z,92.80
2022-10-17T02:59:03.005Z,93.01
2022-10-17T03:00:02.540Z,92.91
2022-10-17T03:01:02.562Z,93.11
2022-10-17T03:02:02.937Z,93.26
2022-10-17T03:03:02.678Z,93.46
2022-10-17T03:04:02.676Z,93.46
2022-10-17T03:05:02.854Z,93.66
2022-10-17T03:06:02.995Z,93.66
2022-10-17T03:07:02.627Z,93.86
2022-10-17T03:08:03.134Z,93.46
2022-10-17T03:09:02.862Z,93.55
2022-10-17T03:10:02.587Z,93.55
2022-10-17T03:11:03.176Z,93.66
2022-10-17T03:12:02.711Z,93.55
2022-10-17T03:13:02.776Z,93.46
2022-10-17T03:14:03.196Z,93.35
2022-10-17T03:15:03.009Z,93.55
2022-10-17T03:16:02.855Z,93.35
2022-10-17T03:17:02.800Z,93.46
2022-10-17T03:18:02.726Z,93.46
2022-10-17T03:19:02.372Z,93.51
2022-10-17T03:20:02.415Z,93.31
2022-10-17T03:21:02.522Z,93.21
2022-10-17T03:22:03.373Z,93.11
2022-10-17T03:23:03.191Z,92.91
2022-10-17T03:24:03.476Z,93.01
2022-10-17T03:25:03.317Z,92.80
2022-10-17T03:26:03.142Z,92.71
2022-10-17T03:27:02.643Z,92.60
2022-10-17T03:28:02.802Z,92.60
2022-10-17T03:29:02.764Z,92.60
2022-10-17T03:30:02.463Z,92.60
2022-10-17T03:31:02.516Z,92.71
2022-10-17T03:32:03.137Z,92.60
2022-10-17T03:33:03.384Z,93.01
2022-10-17T03:34:03.552Z,92.80
2022-10-17T03:35:03.178Z,92.80
2022-10-17T03:36:03.099Z,92.80
2022-10-17T03:37:02.680Z,93.05
2022-10-17T03:38:02.601Z,92.91
2022-10-17T03:39:03.118Z,92.91
2022-10-17T03:40:02.773Z,92.80
2022-10-17T03:41:02.621Z,92.60
2022-10-17T03:42:03.211Z,92.75
2022-10-17T03:43:02.939Z,92.85
2022-10-17T03:44:03.419Z,93.05
2022-10-17T03:45:03.565Z,93.05
2022-10-17T03:46:03.147Z,93.05
2022-10-17T03:47:03.466Z,93.15
2022-10-17T03:48:03.993Z,92.95
2022-10-17T03:49:03.892Z,92.91
2022-10-17T03:50:03.977Z,92.80
2022-10-17T03:51:03.883Z,92.75
2022-10-17T03:52:03.352Z,92.95
2022-10-17T03:53:03.214Z,92.85
2022-10-17T03:54:03.363Z,92.95
2022-10-17T03:55:03.110Z,92.91
2022-10-17T03:56:03.635Z,92.80
2022-10-17T03:57:02.890Z,92.71
2022-10-17T03:58:03.031Z,92.85
2022-10-17T03:59:03.126Z,92.85
2022-10-17T04:00:03.059Z,92.85
2022-10-17T04:01:03.317Z,92.85
2022-10-17T04:02:02.394Z,92.80
2022-10-17T04:03:02.323Z,92.80
2022-10-17T04:04:02.110Z,92.71
2022-10-17T04:05:02.543Z,92.71
2022-10-17T04:06:02.385Z,92.60
2022-10-17T04:07:02.984Z,92.60
2022-10-17T04:08:04.840Z,92.60
2022-10-17T04:09:02.794Z,92.60
2022-10-17T04:10:03.077Z,92.50
2022-10-17T04:11:02.690Z,92.65
2022-10-17T04:12:02.352Z,92.85
2022-10-17T04:13:02.308Z,92.75
2022-10-17T04:14:02.254Z,92.75
2022-10-17T04:15:02.031Z,92.85
2022-10-17T04:16:02.488Z,92.85
2022-10-17T04:17:02.845Z,92.65
2022-10-17T04:18:02.634Z,92.65
2022-10-17T04:19:03.096Z,92.65
2022-10-17T04:20:02.367Z,92.50
2022-10-17T04:21:02.901Z,92.40
2022-10-17T04:22:02.493Z,92.30
2022-10-17T04:23:02.465Z,92.30
2022-10-17T04:24:02.382Z,92.00
2022-10-17T04:25:02.115Z,92.10
2022-10-17T04:26:02.026Z,92.00
2022-10-17T04:27:02.850Z,92.20
2022-10-17T04:28:02.893Z,92.10
2022-10-17T04:29:02.625Z,91.90
2022-10-17T04:30:02.260Z,92.35
2022-10-17T04:31:02.897Z,92.25
2022-10-17T04:32:03.258Z,92.25
2022-10-17T04:33:02.943Z,92.45
2022-10-17T04:34:03.282Z,92.65
2022-10-17T04:35:03.011Z,92.65
2022-10-17T04:36:02.826Z,92.85
2022-10-17T04:37:03.146Z,92.85
2022-10-17T04:38:03.125Z,92.65
2022-10-17T04:39:02.980Z,92.65
2022-10-17T04:40:03.284Z,92.65
2022-10-17T04:41:02.805Z,92.95
2022-10-17T04:42:02.684Z,92.95
2022-10-17T04:43:02.220Z,92.85
2022-10-17T04:44:02.462Z,92.55
2022-10-17T04:45:02.822Z,92.45
2022-10-17T04:46:02.549Z,92.65
2022-10-17T04:47:03.307Z,92.65
2022-10-17T04:48:03.031Z,92.55
2022-10-17T04:49:02.934Z,92.45
2022-10-17T04:50:02.895Z,92.55
2022-10-17T04:51:03.352Z,92.95
2022-10-17T04:52:02.749Z,92.55
2022-10-17T04:53:02.435Z,92.65
2022-10-17T04:54:02.346Z,92.55
2022-10-17T04:55:02.459Z,92.45
2022-10-17T04:56:02.303Z,92.55
2022-10-17T04:57:02.234Z,92.35
2022-10-17T04:58:02.358Z,92.45
2022-10-17T04:59:02.281Z,92.35
2022-10-17T05:00:02.482Z,92.55
2022-10-17T05:01:02.910Z,92.75
2022-10-17T05:02:01.594Z,92.65
2022-10-17T05:03:02.237Z,92.55
2022-10-17T05:04:01.902Z,92.35
2022-10-17T05:05:01.816Z,92.45
2022-10-17T05:06:01.656Z,92.25
2022-10-17T05:07:02.754Z,92.14
2022-10-17T05:08:02.415Z,92.35
2022-10-17T05:09:02.663Z,92.45
2022-10-17T05:10:02.735Z,92.35
2022-10-17T05:11:02.605Z,92.14
2022-10-17T05:12:03.463Z,92.05
2022-10-17T05:13:02.224Z,92.25
2022-10-17T05:14:01.671Z,92.05
2022-10-17T05:15:02.099Z,92.05
2022-10-17T05:16:02.134Z,92.05
2022-10-17T05:17:02.054Z,92.14
2022-10-17T05:18:02.390Z,92.35
2022-10-17T05:19:02.186Z,92.35
2022-10-17T05:20:02.614Z,92.25
2022-10-17T05:21:02.280Z,92.25
2022-10-17T05:22:02.090Z,92.25
2022-10-17T05:23:02.677Z,92.25
2022-10-17T05:24:02.165Z,92.25
2022-10-17T05:25:02.680Z,92.35
2022-10-17T05:26:02.347Z,92.49
2022-10-17T05:27:02.622Z,92.59
2022-10-17T05:28:02.401Z,92.59
2022-10-17T05:29:02.316Z,92.65
2022-10-17T05:30:02.517Z,92.45
2022-10-17T05:31:02.440Z,92.14
2022-10-17T05:33:02.671Z,91.94
2022-10-17T05:34:03.030Z,92.05
2022-10-17T05:35:02.728Z,92.05
2022-10-17T05:36:02.467Z,91.94
2022-10-17T05:37:02.077Z,91.85
2022-10-17T05:38:02.653Z,91.64
2022-10-17T05:39:02.036Z,91.54
2022-10-17T05:40:02.609Z,91.39
2022-10-17T05:41:02.334Z,91.30
2022-10-17T05:42:02.761Z,91.34
2022-10-17T05:43:02.739Z,91.44
2022-10-17T05:44:05.406Z,91.34
2022-10-17T05:45:02.643Z,91.34
2022-10-17T05:46:02.636Z,91.34
2022-10-17T05:47:02.810Z,91.14
2022-10-17T05:48:02.738Z,91.24
2022-10-17T05:49:07.632Z,91.34
2022-10-17T05:50:02.273Z,91.24
2022-10-17T05:51:02.425Z,91.44
2022-10-17T05:52:02.057Z,91.44
2022-10-17T05:53:02.039Z,91.44
2022-10-17T05:54:02.047Z,91.44
2022-10-17T05:55:01.994Z,91.54
2022-10-17T05:56:01.980Z,91.44
2022-10-17T05:57:02.674Z,91.78
2022-10-17T05:58:02.708Z,91.85
2022-10-17T05:59:02.668Z,91.74
2022-10-17T06:00:02.702Z,91.74
2022-10-17T06:01:02.809Z,91.64
2022-10-17T06:02:01.941Z,91.64
2022-10-17T06:03:01.558Z,91.64
2022-10-17T06:04:01.744Z,91.74
2022-10-17T06:05:01.766Z,91.64
2022-10-17T06:06:01.609Z,91.64
2022-10-17T06:07:02.170Z,91.64
2022-10-17T06:08:02.159Z,91.99
2022-10-17T06:09:02.005Z,92.09
2022-10-17T06:10:02.610Z,91.99
2022-10-17T06:11:06.077Z,92.09
2022-10-17T06:12:01.997Z,91.89
2022-10-17T06:13:01.920Z,91.74
2022-10-17T06:14:01.925Z,91.34
2022-10-17T06:15:01.636Z,91.54
2022-10-17T06:16:01.646Z,91.54
2022-10-17T06:17:02.311Z,91.44
2022-10-17T06:18:02.583Z,91.44
2022-10-17T06:19:02.337Z,91.44
2022-10-17T06:20:02.228Z,91.34
2022-10-17T06:21:02.270Z,91.34
2022-10-17T06:22:03.120Z,91.34
2022-10-17T06:23:03.112Z,91.44
2022-10-17T06:24:02.617Z,91.34
2022-10-17T06:25:03.007Z,91.34
2022-10-17T06:26:02.537Z,91.24
2022-10-17T06:27:02.580Z,91.04
2022-10-17T06:28:02.800Z,91.24
2022-10-17T06:29:02.529Z,91.34
2022-10-17T06:30:02.598Z,91.38
2022-10-17T06:31:02.750Z,91.44
2022-10-17T06:32:02.129Z,91.34
2022-10-17T06:33:02.155Z,91.44
2022-10-17T06:34:02.202Z,91.34
2022-10-17T06:35:01.790Z,91.69
2022-10-17T06:36:01.841Z,91.78
2022-10-17T06:37:02.599Z,91.64
2022-10-17T06:38:02.089Z,91.44
2022-10-17T06:39:02.618Z,91.54
2022-10-17T06:40:02.431Z,91.34
2022-10-17T06:41:02.544Z,91.34
2022-10-17T06:42:02.584Z,91.14
2022-10-17T06:43:02.827Z,91.49
2022-10-17T06:44:02.631Z,91.69
2022-10-17T06:45:02.631Z,91.69
2022-10-17T06:46:02.773Z,91.69
2022-10-17T06:47:02.994Z,91.69
2022-10-17T06:48:02.981Z,91.74
2022-10-17T06:49:02.989Z,91.64
2022-10-17T06:50:02.678Z,91.64
2022-10-17T06:51:02.581Z,91.64
2022-10-17T06:52:01.735Z,91.64
2022-10-17T06:53:01.793Z,91.54
2022-10-17T06:54:01.838Z,91.54
2022-10-17T06:56:01.751Z,91.54
2022-10-17T06:57:02.442Z,91.54
2022-10-17T06:58:02.511Z,91.54
2022-10-17T06:59:02.431Z,91.54
2022-10-17T07:00:02.344Z,91.54
2022-10-17T07:01:02.671Z,91.74
2022-10-17T07:02:03.302Z,91.54
2022-10-17T07:03:03.109Z,91.54
2022-10-17T07:04:03.513Z,91.54
2022-10-17T07:05:03.568Z,91.64
2022-10-17T07:06:03.454Z,91.34
2022-10-17T07:07:03.269Z,91.44
2022-10-17T07:08:03.287Z,91.44
2022-10-17T07:09:02.831Z,91.54
2022-10-17T07:10:02.762Z,91.34
2022-10-17T07:11:02.741Z,91.54
2022-10-17T07:12:03.312Z,91.64
2022-10-17T07:13:03.305Z,91.39
2022-10-17T07:14:02.864Z,91.60
2022-10-17T07:15:02.915Z,91.34
2022-10-17T07:16:02.910Z,91.74
2022-10-17T07:17:03.285Z,91.30
2022-10-17T07:18:03.335Z,91.50
2022-10-17T07:19:03.376Z,91.60
2022-10-17T07:20:03.393Z,91.50
2022-10-17T07:21:03.406Z,91.39
2022-10-17T07:22:03.209Z,91.39
2022-10-17T07:23:03.154Z,91.39
2022-10-17T07:24:02.795Z,91.50
2022-10-17T07:25:03.315Z,91.60
2022-10-17T07:26:03.431Z,91.60
2022-10-17T07:27:02.453Z,91.35
2022-10-17T07:28:02.554Z,91.25
2022-10-17T07:29:02.924Z,90.95
2022-10-17T07:30:02.521Z,90.65
2022-10-17T07:31:02.957Z,90.75
2022-10-17T07:32:03.343Z,91.05
2022-10-17T07:33:03.632Z,90.61
2022-10-17T07:34:03.455Z,90.50
2022-10-17T07:35:03.298Z,90.30
2022-10-17T07:36:03.314Z,90.11
2022-10-17T07:37:02.602Z,89.90
2022-10-17T07:38:03.020Z,89.90
2022-10-17T07:39:03.030Z,90.11
2022-10-17T07:40:03.013Z,90.41
2022-10-17T07:41:02.949Z,89.50
2022-10-17T07:42:02.942Z,89.90
2022-10-17T07:43:03.393Z,90.11
2022-10-17T07:44:03.491Z,89.60
2022-10-17T07:45:03.541Z,89.70
2022-10-17T07:46:03.432Z,89.30
2022-10-17T07:47:03.081Z,89.70
2022-10-17T07:48:02.819Z,90.00
2022-10-17T07:49:02.814Z,89.60
2022-10-17T07:50:02.456Z,89.70
2022-10-17T07:51:03.095Z,89.40
2022-10-17T07:52:02.893Z,89.60
2022-10-17T07:53:03.392Z,89.90
2022-10-17T07:54:02.873Z,89.80
2022-10-17T07:55:02.836Z,89.86
2022-10-17T07:56:02.893Z,89.56
2022-10-17T07:57:02.494Z,89.26
2022-10-17T07:58:02.807Z,89.56
2022-10-17T07:59:05.282Z,89.36
2022-10-17T08:00:02.698Z,89.36
2022-10-17T08:02:01.947Z,89.06
2022-10-17T08:03:02.334Z,89.46
2022-10-17T08:04:02.310Z,89.15
2022-10-17T08:05:02.270Z,89.36
2022-10-17T08:06:01.821Z,89.76
2022-10-17T08:07:18.338Z,89.46
2022-10-17T08:08:02.261Z,89.31
2022-10-17T08:09:02.439Z,89.01
2022-10-17T08:10:01.943Z,88.95
2022-10-17T08:11:01.909Z,88.75
2022-10-17T08:12:02.581Z,89.42
2022-10-17T08:13:02.575Z,89.42
2022-10-17T08:14:03.057Z,89.42
2022-10-17T08:15:02.416Z,89.11
2022-10-17T08:16:03.103Z,88.91
2022-10-17T08:17:02.105Z,88.51
2022-10-17T08:18:01.908Z,88.81
2022-10-17T08:19:02.471Z,89.31
2022-10-17T08:20:02.477Z,89.31
2022-10-17T08:21:02.483Z,89.37
2022-10-17T08:22:02.181Z,89.07
2022-10-17T08:23:02.001Z,88.97
2022-10-17T08:24:02.531Z,88.87
2022-10-17T08:25:02.302Z,89.17
2022-10-17T08:26:02.303Z,88.67
2022-10-17T08:27:02.403Z,88.77
2022-10-17T08:28:02.347Z,88.47
2022-10-17T08:29:02.567Z,88.47
2022-10-17T08:30:02.648Z,88.43
2022-10-17T08:31:02.321Z,88.63
2022-10-17T08:32:03.702Z,88.32
2022-10-17T08:33:01.925Z,88.53
2022-10-17T08:34:01.627Z,88.83
2022-10-17T08:35:01.656Z,87.73
2022-10-17T08:36:01.724Z,88.23
2022-10-17T08:37:02.411Z,88.39
2022-10-17T08:38:02.268Z,88.29
2022-10-17T08:39:02.514Z,86.58
2022-10-17T08:40:02.518Z,87.28
2022-10-17T08:41:02.644Z,87.18
2022-10-17T08:42:02.773Z,86.98
2022-10-17T08:43:02.485Z,87.58
2022-10-17T08:44:02.656Z,87.68
2022-10-17T08:45:02.756Z,87.28
2022-10-17T08:46:02.661Z,87.18
2022-10-17T08:47:01.774Z,87.78
2022-10-17T08:48:02.187Z,87.18
2022-10-17T08:49:01.765Z,87.28
2022-10-17T08:50:02.130Z,87.38
2022-10-17T08:51:01.779Z,86.78
2022-10-17T08:52:02.504Z,87.08
2022-10-17T08:53:02.615Z,87.08
2022-10-17T08:54:02.616Z,86.98
2022-10-17T08:55:02.180Z,87.18
2022-10-17T08:56:02.359Z,86.94
2022-10-17T08:57:02.797Z,86.94
2022-10-17T08:58:02.866Z,87.64
2022-10-17T08:59:02.319Z,86.84
2022-10-17T09:00:02.941Z,87.14
2022-10-17T09:01:02.797Z,87.04
2022-10-17T09:02:02.590Z,86.84
2022-10-17T09:03:02.604Z,86.74
2022-10-17T09:04:02.785Z,87.14
2022-10-17T09:05:02.843Z,87.04
2022-10-17T09:06:02.673Z,86.74
2022-10-17T09:07:02.576Z,87.10
2022-10-17T09:08:02.587Z,87.00
2022-10-17T09:09:02.708Z,86.90
2022-10-17T09:10:02.403Z,87.00
2022-10-17T09:11:02.453Z,86.40
2022-10-17T09:12:02.212Z,85.80
2022-10-17T09:13:07.598Z,85.80
2022-10-17T09:14:02.016Z,86.19
2022-10-17T09:15:01.957Z,86.90
2022-10-17T09:16:02.018Z,86.19
2022-10-17T09:17:02.617Z,86.40
2022-10-17T09:18:02.556Z,86.80
2022-10-17T09:19:02.759Z,86.16
2022-10-17T09:20:02.514Z,86.05
2022-10-17T09:21:02.549Z,86.16
2022-10-17T09:22:02.757Z,86.66
2022-10-17T09:23:02.917Z,86.96
2022-10-17T09:24:09.144Z,85.96
2022-10-17T09:25:02.679Z,85.96
2022-10-17T09:26:02.738Z,85.66
2022-10-17T09:27:02.949Z,86.11
2022-10-17T09:28:03.105Z,86.32
2022-10-17T09:29:02.586Z,86.82
2022-10-17T09:30:02.915Z,85.71
2022-10-17T09:31:03.059Z,86.68
2022-10-17T09:32:02.619Z,86.57
2022-10-17T09:33:02.496Z,85.68
2022-10-17T09:34:02.223Z,85.57
2022-10-17T09:35:02.149Z,86.33
2022-10-17T09:36:02.292Z,85.33
2022-10-17T09:37:03.181Z,85.53
2022-10-17T09:38:02.906Z,83.89
2022-10-17T09:39:02.915Z,84.39
2022-10-17T09:40:02.921Z,84.69
2022-10-17T09:41:02.891Z,85.25
2022-10-17T09:42:02.599Z,84.15
2022-10-17T09:43:02.610Z,82.95
2022-10-17T09:44:02.605Z,82.85
2022-10-17T09:45:02.696Z,82.85
2022-10-17T09:46:02.060Z,83.61
2022-10-17T09:47:02.675Z,81.92
2022-10-17T09:48:02.494Z,82.61
2022-10-17T09:50:02.230Z,81.41
2022-10-17T09:51:14.721Z,81.81
2022-10-17T09:52:03.324Z,82.91
2022-10-17T09:53:02.957Z,83.07
2022-10-17T09:54:02.966Z,82.57
2022-10-17T09:55:02.872Z,82.47
2022-10-17T09:56:02.868Z,82.28
2022-10-17T09:57:02.653Z,81.54
2022-10-17T09:58:02.460Z,81.34
2022-10-17T09:59:02.535Z,81.13
2022-10-17T10:00:02.718Z,81.63
2022-10-17T10:01:02.596Z,81.24
2022-10-17T10:02:03.199Z,80.83
2022-10-17T10:03:02.640Z,80.34
2022-10-17T10:04:02.998Z,80.83
2022-10-17T10:05:04.631Z,81.13
2022-10-17T10:06:02.958Z,81.93
2022-10-17T10:07:03.686Z,81.63
2022-10-17T10:08:03.790Z,80.80
2022-10-17T10:09:03.274Z,81.49
2022-10-17T10:10:03.333Z,81.00
2022-10-17T10:11:03.557Z,81.00
2022-10-17T10:12:02.707Z,80.60
2022-10-17T10:13:03.243Z,80.80
2022-10-17T10:14:03.080Z,80.50
2022-10-17T10:15:03.082Z,80.36
2022-10-17T10:16:03.264Z,80.56
2022-10-17T10:17:03.074Z,81.36
2022-10-17T10:18:03.113Z,80.76
2022-10-17T10:19:05.855Z,79.76
2022-10-17T10:20:03.512Z,79.57
2022-10-17T10:21:03.439Z,80.72
2022-10-17T10:22:03.438Z,79.93
2022-10-17T10:23:03.453Z,80.32
2022-10-17T10:24:04.059Z,79.52
2022-10-17T10:25:03.468Z,79.13
2022-10-17T10:26:03.564Z,79.13
2022-10-17T10:27:03.688Z,79.33
2022-10-17T10:28:02.732Z,79.33
2022-10-17T10:29:02.880Z,79.22
2022-10-17T10:30:03.055Z,79.13
2022-10-17T10:31:03.039Z,79.93
2022-10-17T10:33:03.377Z,78.83
2022-10-17T10:34:03.495Z,79.22
2022-10-17T10:35:03.060Z,79.79
2022-10-17T10:36:03.174Z,79.69
2022-10-17T10:37:03.395Z,78.69
2022-10-17T10:38:03.113Z,79.58
2022-10-17T10:39:04.633Z,79.69
2022-10-17T10:40:02.687Z,78.99
2022-10-17T10:41:03.149Z,78.25
2022-10-17T10:42:02.942Z,78.29
2022-10-17T10:43:05.644Z,78.55
2022-10-17T10:44:02.741Z,79.25
2022-10-17T10:45:02.901Z,78.25
2022-10-17T10:46:02.848Z,77.36
2022-10-17T10:47:02.702Z,78.95
2022-10-17T10:48:03.515Z,77.76
2022-10-17T10:49:03.353Z,77.95
2022-10-17T10:50:03.669Z,77.76
2022-10-17T10:51:03.511Z,78.55
2022-10-17T10:52:03.564Z,78.91
2022-10-17T10:53:03.674Z,78.91
2022-10-17T10:54:03.647Z,77.52
2022-10-17T10:55:03.670Z,76.32
2022-10-17T10:56:03.346Z,77.82
2022-10-17T10:57:03.466Z,77.02
2022-10-17T10:58:03.365Z,76.62
2022-10-17T10:59:03.486Z,77.32
2022-10-17T11:00:03.324Z,78.38
2022-10-17T11:01:03.579Z,75.33
2022-10-17T11:02:03.389Z,75.43
2022-10-17T11:03:03.931Z,76.03
2022-10-17T11:04:03.024Z,76.62
2022-10-17T11:05:03.289Z,76.92
2022-10-17T11:06:03.343Z,77.72
2022-10-17T11:07:03.302Z,77.12
2022-10-17T11:08:02.975Z,76.03
2022-10-17T11:09:02.787Z,76.72
2022-10-17T11:10:02.815Z,77.32
2022-10-17T11:11:02.830Z,77.42
2022-10-17T11:12:03.202Z,76.72
2022-10-17T11:13:02.962Z,77.32
2022-10-17T11:14:03.211Z,77.38
2022-10-17T11:15:03.106Z,77.68
2022-10-17T11:16:03.145Z,77.78
2022-10-17T11:17:03.229Z,76.79
2022-10-17T11:18:02.805Z,76.09
2022-10-17T11:19:02.898Z,76.79
2022-10-17T11:20:02.987Z,77.09
2022-10-17T11:21:03.260Z,76.49
2022-10-17T11:22:03.326Z,76.89
2022-10-17T11:23:03.302Z,77.68
2022-10-17T11:24:06.786Z,76.29
2022-10-17T11:25:03.422Z,76.43
2022-10-17T11:26:03.517Z,76.72
2022-10-17T11:27:02.925Z,76.82
2022-10-17T11:28:05.186Z,77.12
2022-10-17T11:29:03.404Z,76.92
2022-10-17T11:30:03.462Z,77.82
2022-10-17T11:31:07.096Z,77.58
2022-10-17T11:32:03.847Z,78.58
2022-10-17T11:33:03.161Z,77.98
2022-10-17T11:34:03.148Z,77.98
2022-10-17T11:35:03.422Z,78.48
2022-10-17T11:36:03.064Z,77.88
2022-10-17T11:37:03.190Z,77.38
2022-10-17T11:38:03.304Z,77.15
2022-10-17T11:39:03.379Z,76.15
2022-10-17T11:40:03.504Z,76.79
2022-10-17T11:41:03.569Z,76.29
2022-10-17T11:42:04.359Z,77.68
2022-10-17T11:43:02.756Z,77.05
2022-10-17T11:44:02.697Z,76.55
2022-10-17T11:45:02.806Z,77.15
2022-10-17T11:46:02.809Z,77.64
2022-10-17T11:47:02.745Z,78.04
2022-10-17T11:48:03.449Z,77.55
2022-10-17T11:49:03.601Z,76.15
2022-10-17T11:52:03.573Z,77.45
2022-10-17T11:53:03.719Z,77.64
2022-10-17T11:54:03.010Z,77.25
2022-10-17T11:55:03.090Z,75.92
2022-10-17T11:56:02.920Z,76.85
2022-10-17T11:57:02.620Z,76.95
2022-10-17T11:58:02.800Z,77.01
2022-10-17T11:59:03.250Z,77.51
2022-10-17T12:00:02.824Z,75.92
2022-10-17T12:01:02.814Z,75.46
2022-10-17T12:02:02.786Z,75.76
2022-10-17T12:03:02.458Z,76.35
2022-10-17T12:04:02.088Z,76.35
2022-10-17T12:05:02.168Z,76.35
2022-10-17T12:06:02.131Z,75.85
2022-10-17T12:07:02.252Z,76.15
2022-10-17T12:08:02.839Z,76.75
2022-10-17T12:09:02.953Z,74.96
2022-10-17T12:10:02.732Z,75.36
2022-10-17T12:11:02.410Z,75.95
2022-10-17T12:12:02.608Z,76.45
2022-10-17T12:13:01.934Z,76.65
2022-10-17T12:14:05.929Z,76.91
2022-10-17T12:15:02.046Z,77.21
2022-10-17T12:16:02.062Z,77.21
2022-10-17T12:17:02.179Z,74.66
2022-10-17T12:18:02.763Z,74.96
2022-10-17T12:19:02.618Z,75.76
2022-10-17T12:20:02.712Z,75.76
2022-10-17T12:21:02.744Z,76.42
2022-10-17T12:22:02.389Z,75.92
2022-10-17T12:23:02.495Z,75.32
2022-10-17T12:24:02.647Z,76.12
2022-10-17T12:25:02.691Z,74.43
2022-10-17T12:26:04.742Z,75.22
2022-10-17T12:27:02.423Z,75.62
2022-10-17T12:28:02.529Z,75.12
2022-10-17T12:29:02.641Z,76.18
2022-10-17T12:30:02.661Z,74.79
2022-10-17T12:31:03.073Z,75.29
2022-10-17T12:32:02.927Z,75.29
2022-10-17T12:33:07.055Z,74.49
2022-10-17T12:34:02.088Z,75.68
2022-10-17T12:35:02.483Z,74.99
2022-10-17T12:36:02.633Z,75.68
2022-10-17T12:37:02.567Z,75.98
2022-10-17T12:38:02.837Z,75.68
2022-10-17T12:39:02.673Z,75.09
2022-10-17T12:40:02.727Z,75.78
2022-10-17T12:41:02.865Z,75.48
2022-10-17T12:42:02.567Z,74.79
2022-10-17T12:43:03.179Z,75.98
2022-10-17T12:44:02.782Z,76.08
2022-10-17T12:45:02.822Z,75.88
2022-10-17T12:46:02.837Z,74.99
2022-10-17T12:47:02.922Z,75.38
2022-10-17T12:48:02.123Z,75.09
2022-10-17T12:49:02.343Z,72.94
2022-10-17T12:50:02.419Z,74.82
2022-10-17T12:51:34.948Z,75.52
2022-10-17T12:52:02.473Z,76.12
2022-10-17T12:53:02.653Z,76.61
2022-10-17T12:54:02.840Z,76.18
2022-10-17T12:55:16.767Z,75.18
2022-10-17T12:56:03.004Z,74.39
2022-10-17T12:57:02.882Z,73.90
2022-10-17T12:58:02.915Z,74.59
2022-10-17T12:59:03.070Z,75.68
2022-10-17T13:00:03.097Z,74.69
2022-10-17T13:01:23.200Z,74.09